Portada
METAR-TAF:

METAR-TAF

Aeropuertos :

Agen, Francia

latitud: 44-11N, longitud: 000-36E, altitud: 61 m

Observación

El informe se hizo hace 19 horas y 59 minutos, a las 15:00 UTC
Viento 12 kt del oeste-noroeste
Temperatura 11°C
Humedad 94%
Presión 1016 hPa
Visibilidad 10 km o más
Cielo nuboso a una altura de 1100 ft
Cielo cubierto a una altura de 1600 ft

METAR: LFBA 201500Z AUTO 30012KT 9999 BKN011 OVC016 11/10 Q1016 TEMPO 4000 -RA OVC004

Hora: 11:59 (10:59 UTC)

Pronóstico

El informe se hizo hace 20 horas y 59 minutos, a las 14:00 UTC
Pronóstico válido del 20 a las 15 UTC al 20 a las 24 UTC
Viento 9 kt del oeste-noroeste
Visibilidad: 9000 m
Cielo nuboso a una altura de 1500 ft
Cielo nuboso a una altura de 2200 ft
Temporalmente
del 20 a las 15 UTC al 20 a las 24 UTC
Visibilidad: 4000 m
Cielo cubierto a una altura de 400 ft
lluvia ligera

TAF: LFBA 201400Z 2015/2024 30009KT 9000 BKN015 BKN022 TEMPO 2015/2024 4000 -RA OVC004

Observaciones y pronósticos meteorológicos de más de 4000 aeropuertos (mensajes METAR y TAF).

Los puntos amarillos y rojos representan las estaciones disponibles.

Ponga el ratón en el punto deseado para ver el nombre de la estación.

Haga clic para ver las observaciones y los pronósticos meteorológicos.

Para cambiar el mapa : haga clic en los botones verdes con una cruz de color negro para hacer un zoom, en el botón verde con un guión para alejar o en las flechas verdes para mapas adyacentes.


METAR-TAF: